Superseacat Three — IBGH — position and weather

sailwx.info

Track history (hours):
 
Tides and Currents Weather Stations Pressure Air Temp Water Temp Dewpoint Dewpoint Depression Visibility Wind Speed Wind Dir Waves Ship Positions

Superseacat Three

Operator: Sea Containers Irish Sea Operations

Last reported at 2017-Mar-28 20:20 UTC. Time now 2017-Mar-30 14:35 UTC.
Position N 37°48' E 016°01'.

Length 110 m; draft 6.3 m.

Type: Ship (hazmat cat B). MMSI: 247353300.

Date/timePositionNaut miles runAvg speedWind from/ knotsBaromVisibWave heightAir tempDewpointWater temp
2017-Mar-28 20:20N 37°48' E 016°01'912.0
2017-Mar-28 19:33N 37°41' E 015°53'1411.1
2017-Mar-28 18:19N 37°32' E 015°41'18 0.7
2017-Mar-27 17:28N 37°44' E 015°57'199 4.6
2017-Mar-25 22:31N 40°39' E 017°59'31411.6
2017-Mar-24 19:33N 44°27' E 013°06'1212.3
2017-Mar-24 18:33N 44°39' E 013°01'1212.2
2017-Mar-24 17:33N 44°50' E 012°54'1212.1
2017-Mar-24 16:33N 45°01' E 012°46'1211.6
2017-Mar-24 15:33N 45°10' E 012°35'1211.5
2017-Mar-24 14:33N 45°18' E 012°24'8 7.6
2017-Mar-24 13:33N 45°23' E 012°16'4 3.5
2017-Mar-24 12:33N 45°26' E 012°14'0 0.0
2017-Mar-24 11:33N 45°26' E 012°14'0 0.0
2017-Mar-24 10:33N 45°26' E 012°14'0 0.0
2017-Mar-24 09:33N 45°26' E 012°14'0 0.0
2017-Mar-24 08:27N 45°26' E 012°14'0 0.0
2017-Mar-24 07:33N 45°26' E 012°14'0 0.0
2017-Mar-24 06:33N 45°26' E 012°14'0 0.0
2017-Mar-24 05:33N 45°26' E 012°14'0 0.0
2017-Mar-24 04:33N 45°26' E 012°14'0 0.0
2017-Mar-24 03:33N 45°26' E 012°14'0 0.0
2017-Mar-24 02:30N 45°26' E 012°14'0 0.0
2017-Mar-24 01:33N 45°26' E 012°14'0 0.0
2017-Mar-24 00:33N 45°26' E 012°14'0 0.0
2017-Mar-23 23:33N 45°26' E 012°14'0 0.0
2017-Mar-23 22:30N 45°26' E 012°14'0 0.0
2017-Mar-23 21:33N 45°26' E 012°14'0 0.0
2017-Mar-23 20:33N 45°26' E 012°14'0 0.0
2017-Mar-23 19:33N 45°26' E 012°14'0 0.0
2017-Mar-23 18:33N 45°26' E 012°14'0 0.0
2017-Mar-23 17:33N 45°26' E 012°14'0 0.0
2017-Mar-23 16:33N 45°26' E 012°14'0 0.0
2017-Mar-23 15:30N 45°26' E 012°14'0 0.0
2017-Mar-23 14:33N 45°26' E 012°14'0 0.0
2017-Mar-23 13:33N 45°26' E 012°14'0 0.0
2017-Mar-23 12:33N 45°26' E 012°14'0 0.0
2017-Mar-23 11:33N 45°26' E 012°14'0 0.0
2017-Mar-23 10:33N 45°26' E 012°14'0 0.0
2017-Mar-23 09:33N 45°26' E 012°14'0 0.0
2017-Mar-23 08:33N 45°26' E 012°14'0 0.0
2017-Mar-23 07:33N 45°26' E 012°14'0 0.0
2017-Mar-23 06:33N 45°26' E 012°14'0 0.0
2017-Mar-23 05:33N 45°26' E 012°14'0 0.0
2017-Mar-23 04:33N 45°26' E 012°14'0 0.0
2017-Mar-23 03:33N 45°26' E 012°14'0 0.0
2017-Mar-23 02:33N 45°26' E 012°14'0 0.0
2017-Mar-23 01:30N 45°26' E 012°14'0 0.0
2017-Mar-23 00:33N 45°26' E 012°14'0 0.0
2017-Mar-22 23:33N 45°26' E 012°14'0 0.0
2017-Mar-22 22:33N 45°26' E 012°14'0 0.0
2017-Mar-22 21:33N 45°26' E 012°14'0 0.0
2017-Mar-22 20:27N 45°26' E 012°14'0 0.0
2017-Mar-22 19:33N 45°26' E 012°14'0 0.0
2017-Mar-22 18:33N 45°26' E 012°14'0 0.0
2017-Mar-22 17:33N 45°26' E 012°14'0 0.0
2017-Mar-22 16:33N 45°26' E 012°14'0 0.0
2017-Mar-22 15:30N 45°26' E 012°14'0 0.0
2017-Mar-22 14:33N 45°26' E 012°14'0 0.0
2017-Mar-22 13:33N 45°26' E 012°14'0 0.0
2017-Mar-22 12:33N 45°26' E 012°14'0 0.0
2017-Mar-22 11:33N 45°26' E 012°14'0 0.0
2017-Mar-22 10:24N 45°26' E 012°14'0 0.0
2017-Mar-22 09:33N 45°26' E 012°14'0 0.0
2017-Mar-22 08:33N 45°26' E 012°14'0 0.0
2017-Mar-22 07:08N 45°26' E 012°14'5 5.1
2017-Mar-22 06:07N 45°21' E 012°15'5 9.2
2017-Mar-22 05:33N 45°20' E 012°22'2 1.8
2017-Mar-22 04:19N 45°20' E 012°25'0 0.0
2017-Mar-22 03:31N 45°20' E 012°25'0 0.0
2017-Mar-22 02:25N 45°20' E 012°25'0 0.0
2017-Mar-22 01:31N 45°20' E 012°26'0 0.0
2017-Mar-22 00:31N 45°20' E 012°26'0 0.0
2017-Mar-21 23:31N 45°20' E 012°26'0 0.0
2017-Mar-21 22:31N 45°20' E 012°26'0 0.0
2017-Mar-21 21:31N 45°20' E 012°26'0 0.0
2017-Mar-21 20:31N 45°20' E 012°26'0 0.0
2017-Mar-21 19:28N 45°20' E 012°25'0 0.0
2017-Mar-21 18:31N 45°20' E 012°25'0 0.0
2017-Mar-21 17:31N 45°20' E 012°25'0 0.0
2017-Mar-21 16:31N 45°20' E 012°26'0 0.0
2017-Mar-21 15:31N 45°20' E 012°25'0 0.0
2017-Mar-21 14:31N 45°20' E 012°25'0 0.0
2017-Mar-21 13:31N 45°20' E 012°25'0 0.1
2017-Mar-21 12:31N 45°20' E 012°26'0 0.0
2017-Mar-21 11:31N 45°20' E 012°26'0 0.0
2017-Mar-21 10:28N 45°20' E 012°26'0 0.0
2017-Mar-21 07:28N 45°20' E 012°26'0 0.0
2017-Mar-21 06:31N 45°20' E 012°26'0 0.0
2017-Mar-21 05:10N 45°20' E 012°26'0 0.0
2017-Mar-21 04:19N 45°20' E 012°26'0 0.0
2017-Mar-21 03:28N 45°20' E 012°26'0 0.0
2017-Mar-21 02:19N 45°20' E 012°26'0 0.0
2017-Mar-21 01:28N 45°20' E 012°25'0 0.0
2017-Mar-21 00:31N 45°20' E 012°25'0 0.0
2017-Mar-20 23:16N 45°20' E 012°25'0 0.0
2017-Mar-20 22:25N 45°20' E 012°26'0 0.0
2017-Mar-20 17:22N 45°20' E 012°26'0 0.0
2017-Mar-20 16:28N 45°20' E 012°26'0 0.0
2017-Mar-20 15:31N 45°20' E 012°26'0 0.0
2017-Mar-20 14:31N 45°20' E 012°26'0 0.0
2017-Mar-20 13:31N 45°20' E 012°26'0 0.0
2017-Mar-20 12:31N 45°20' E 012°26'0 0.0
2017-Mar-20 11:31N 45°20' E 012°26'0 0.0
2017-Mar-20 10:31N 45°20' E 012°26'0 0.0
2017-Mar-20 09:31N 45°20' E 012°26'0 0.0
2017-Mar-20 08:31N 45°20' E 012°26'0 0.0
2017-Mar-20 07:31N 45°20' E 012°26'0 0.0
2017-Mar-20 06:28N 45°20' E 012°26'0 0.0
2017-Mar-20 05:19N 45°20' E 012°26'0 0.0
2017-Mar-20 04:31N 45°20' E 012°26'0 0.0
2017-Mar-20 03:31N 45°20' E 012°26'0 0.0
2017-Mar-20 02:31N 45°20' E 012°26'0 0.0
2017-Mar-20 01:31N 45°20' E 012°26'0 0.0
2017-Mar-20 00:31N 45°20' E 012°26'0 0.0
2017-Mar-19 23:33N 45°20' E 012°25'8 8.1
2017-Mar-19 22:33N 45°15' E 012°35'1212.2
2017-Mar-19 21:33N 45°08' E 012°48'1212.2
2017-Mar-19 20:33N 44°56' E 012°55'1212.3
2017-Mar-19 19:33N 44°45' E 013°01'1212.2
2017-Mar-19 18:33N 44°33' E 013°07'1212.4
2017-Mar-19 17:33N 44°22' E 013°13'1212.0
2017-Mar-19 16:33N 44°13' E 013°24'1212.4
2017-Mar-19 15:33N 44°05' E 013°38'1212.4
2017-Mar-19 14:33N 43°57' E 013°51'1312.5
2017-Mar-19 13:33N 43°51' E 014°07'  
Track history (hours):
 
Tides and Currents Weather Stations Pressure Air Temp Water Temp Dewpoint Dewpoint Depression Visibility Wind Speed Wind Dir Waves Ship Positions

Superseacat Three

Operator: Sea Containers Irish Sea Operations

Last reported at 2017-Mar-28 20:20 UTC. Time now 2017-Mar-30 14:35 UTC.
Position N 37°48' E 016°01'.

Length 110 m; draft 6.3 m.

Type: Ship (hazmat cat B). MMSI: 247353300.

Date/timePositionNaut miles runAvg speedWind from/ knotsBaromVisibWave heightAir tempDewpointWater temp
2017-Mar-28 20:20N 37°48' E 016°01'912.0
2017-Mar-28 19:33N 37°41' E 015°53'1411.1
2017-Mar-28 18:19N 37°32' E 015°41'18 0.7
2017-Mar-27 17:28N 37°44' E 015°57'199 4.6
2017-Mar-25 22:31N 40°39' E 017°59'31411.6
2017-Mar-24 19:33N 44°27' E 013°06'1212.3
2017-Mar-24 18:33N 44°39' E 013°01'1212.2
2017-Mar-24 17:33N 44°50' E 012°54'1212.1
2017-Mar-24 16:33N 45°01' E 012°46'1211.6
2017-Mar-24 15:33N 45°10' E 012°35'1211.5
2017-Mar-24 14:33N 45°18' E 012°24'8 7.6
2017-Mar-24 13:33N 45°23' E 012°16'4 3.5
2017-Mar-24 12:33N 45°26' E 012°14'0 0.0
2017-Mar-24 11:33N 45°26' E 012°14'0 0.0
2017-Mar-24 10:33N 45°26' E 012°14'0 0.0
2017-Mar-24 09:33N 45°26' E 012°14'0 0.0
2017-Mar-24 08:27N 45°26' E 012°14'0 0.0
2017-Mar-24 07:33N 45°26' E 012°14'0 0.0
2017-Mar-24 06:33N 45°26' E 012°14'0 0.0
2017-Mar-24 05:33N 45°26' E 012°14'0 0.0
2017-Mar-24 04:33N 45°26' E 012°14'0 0.0
2017-Mar-24 03:33N 45°26' E 012°14'0 0.0
2017-Mar-24 02:30N 45°26' E 012°14'0 0.0
2017-Mar-24 01:33N 45°26' E 012°14'0 0.0
2017-Mar-24 00:33N 45°26' E 012°14'0 0.0
2017-Mar-23 23:33N 45°26' E 012°14'0 0.0
2017-Mar-23 22:30N 45°26' E 012°14'0 0.0
2017-Mar-23 21:33N 45°26' E 012°14'0 0.0
2017-Mar-23 20:33N 45°26' E 012°14'0 0.0
2017-Mar-23 19:33N 45°26' E 012°14'0 0.0
2017-Mar-23 18:33N 45°26' E 012°14'0 0.0
2017-Mar-23 17:33N 45°26' E 012°14'0 0.0
2017-Mar-23 16:33N 45°26' E 012°14'0 0.0
2017-Mar-23 15:30N 45°26' E 012°14'0 0.0
2017-Mar-23 14:33N 45°26' E 012°14'0 0.0
2017-Mar-23 13:33N 45°26' E 012°14'0 0.0
2017-Mar-23 12:33N 45°26' E 012°14'0 0.0
2017-Mar-23 11:33N 45°26' E 012°14'0 0.0
2017-Mar-23 10:33N 45°26' E 012°14'0 0.0
2017-Mar-23 09:33N 45°26' E 012°14'0 0.0
2017-Mar-23 08:33N 45°26' E 012°14'0 0.0
2017-Mar-23 07:33N 45°26' E 012°14'0 0.0
2017-Mar-23 06:33N 45°26' E 012°14'0 0.0
2017-Mar-23 05:33N 45°26' E 012°14'0 0.0
2017-Mar-23 04:33N 45°26' E 012°14'0 0.0
2017-Mar-23 03:33N 45°26' E 012°14'0 0.0
2017-Mar-23 02:33N 45°26' E 012°14'0 0.0
2017-Mar-23 01:30N 45°26' E 012°14'0 0.0
2017-Mar-23 00:33N 45°26' E 012°14'0 0.0
2017-Mar-22 23:33N 45°26' E 012°14'0 0.0
2017-Mar-22 22:33N 45°26' E 012°14'0 0.0
2017-Mar-22 21:33N 45°26' E 012°14'0 0.0
2017-Mar-22 20:27N 45°26' E 012°14'0 0.0
2017-Mar-22 19:33N 45°26' E 012°14'0 0.0
2017-Mar-22 18:33N 45°26' E 012°14'0 0.0
2017-Mar-22 17:33N 45°26' E 012°14'0 0.0
2017-Mar-22 16:33N 45°26' E 012°14'0 0.0
2017-Mar-22 15:30N 45°26' E 012°14'0 0.0
2017-Mar-22 14:33N 45°26' E 012°14'0 0.0
2017-Mar-22 13:33N 45°26' E 012°14'0 0.0
2017-Mar-22 12:33N 45°26' E 012°14'0 0.0
2017-Mar-22 11:33N 45°26' E 012°14'0 0.0
2017-Mar-22 10:24N 45°26' E 012°14'0 0.0
2017-Mar-22 09:33N 45°26' E 012°14'0 0.0
2017-Mar-22 08:33N 45°26' E 012°14'0 0.0
2017-Mar-22 07:08N 45°26' E 012°14'5 5.1
2017-Mar-22 06:07N 45°21' E 012°15'5 9.2
2017-Mar-22 05:33N 45°20' E 012°22'2 1.8
2017-Mar-22 04:19N 45°20' E 012°25'0 0.0
2017-Mar-22 03:31N 45°20' E 012°25'0 0.0
2017-Mar-22 02:25N 45°20' E 012°25'0 0.0
2017-Mar-22 01:31N 45°20' E 012°26'0 0.0
2017-Mar-22 00:31N 45°20' E 012°26'0 0.0
2017-Mar-21 23:31N 45°20' E 012°26'0 0.0
2017-Mar-21 22:31N 45°20' E 012°26'0 0.0
2017-Mar-21 21:31N 45°20' E 012°26'0 0.0
2017-Mar-21 20:31N 45°20' E 012°26'0 0.0
2017-Mar-21 19:28N 45°20' E 012°25'0 0.0
2017-Mar-21 18:31N 45°20' E 012°25'0 0.0
2017-Mar-21 17:31N 45°20' E 012°25'0 0.0
2017-Mar-21 16:31N 45°20' E 012°26'0 0.0
2017-Mar-21 15:31N 45°20' E 012°25'0 0.0
2017-Mar-21 14:31N 45°20' E 012°25'0 0.0
2017-Mar-21 13:31N 45°20' E 012°25'0 0.1
2017-Mar-21 12:31N 45°20' E 012°26'0 0.0
2017-Mar-21 11:31N 45°20' E 012°26'0 0.0
2017-Mar-21 10:28N 45°20' E 012°26'0 0.0
2017-Mar-21 07:28N 45°20' E 012°26'0 0.0
2017-Mar-21 06:31N 45°20' E 012°26'0 0.0
2017-Mar-21 05:10N 45°20' E 012°26'0 0.0
2017-Mar-21 04:19N 45°20' E 012°26'0 0.0
2017-Mar-21 03:28N 45°20' E 012°26'0 0.0
2017-Mar-21 02:19N 45°20' E 012°26'0 0.0
2017-Mar-21 01:28N 45°20' E 012°25'0 0.0
2017-Mar-21 00:31N 45°20' E 012°25'0 0.0
2017-Mar-20 23:16N 45°20' E 012°25'0 0.0
2017-Mar-20 22:25N 45°20' E 012°26'0 0.0
2017-Mar-20 17:22N 45°20' E 012°26'0 0.0
2017-Mar-20 16:28N 45°20' E 012°26'0 0.0
2017-Mar-20 15:31N 45°20' E 012°26'0 0.0
2017-Mar-20 14:31N 45°20' E 012°26'0 0.0
2017-Mar-20 13:31N 45°20' E 012°26'0 0.0
2017-Mar-20 12:31N 45°20' E 012°26'0 0.0
2017-Mar-20 11:31N 45°20' E 012°26'0 0.0
2017-Mar-20 10:31N 45°20' E 012°26'0 0.0
2017-Mar-20 09:31N 45°20' E 012°26'0 0.0
2017-Mar-20 08:31N 45°20' E 012°26'0 0.0
2017-Mar-20 07:31N 45°20' E 012°26'0 0.0
2017-Mar-20 06:28N 45°20' E 012°26'0 0.0
2017-Mar-20 05:19N 45°20' E 012°26'0 0.0
2017-Mar-20 04:31N 45°20' E 012°26'0 0.0
2017-Mar-20 03:31N 45°20' E 012°26'0 0.0
2017-Mar-20 02:31N 45°20' E 012°26'0 0.0
2017-Mar-20 01:31N 45°20' E 012°26'0 0.0
2017-Mar-20 00:31N 45°20' E 012°26'0 0.0
2017-Mar-19 23:33N 45°20' E 012°25'8 8.1
2017-Mar-19 22:33N 45°15' E 012°35'1212.2
2017-Mar-19 21:33N 45°08' E 012°48'1212.2
2017-Mar-19 20:33N 44°56' E 012°55'1212.3
2017-Mar-19 19:33N 44°45' E 013°01'1212.2
2017-Mar-19 18:33N 44°33' E 013°07'1212.4
2017-Mar-19 17:33N 44°22' E 013°13'1212.0
2017-Mar-19 16:33N 44°13' E 013°24'1212.4
2017-Mar-19 15:33N 44°05' E 013°38'1212.4
2017-Mar-19 14:33N 43°57' E 013°51'1312.5
2017-Mar-19 13:33N 43°51' E 014°07'  

Dump ship's entire track history